Flight Track Log - Related Links

Times and Time Zones

All times are in EDT time to prevent confusion due to time zone crossing. See the N3521S flight status page for this flight to view local times or setup timezone preferences in your user account.

Time Position Orientation Groundspeed Altitude Reporting Facility
EDT Latitude Longitude Course Direction KTS MPH feet Rate Location/Type
Mon 07:15:55 PM 36.6703 -81.9500 90° East 150 173 4,900  Level Atlanta Center
Mon 07:16:55 PM 36.6778 -81.9008 79° East 150 173 5,700 800 Climbing Atlanta Center
Mon 07:17:55 PM 36.6894 -81.8539 73° East 150 173 6,500 750 Climbing Atlanta Center
Mon 07:18:55 PM 36.7053 -81.8017 69° East 150 173 7,200 700 Climbing Atlanta Center
Mon 07:19:55 PM 36.7147 -81.7494 77° East 157 181 7,900 700 Climbing Atlanta Center
Mon 07:20:55 PM 36.7283 -81.6947 73° East 157 181 8,600 550 Climbing Atlanta Center
Mon 07:21:00 PM 36.7509 -81.7041 90° East  Level Estimated
Mon 07:21:55 PM 36.7417 -81.6400 73° East 162 186 9,000  Level Atlanta Center
Mon 07:22:55 PM 36.7572 -81.5800 72° East 168 193 9,000  Level Atlanta Center
Mon 07:23:55 PM 36.7728 -81.5172 73° East 181 208 9,000  Level Atlanta Center
Mon 07:24:55 PM 36.7878 -81.4467 75° East 186 214 9,000  Level Atlanta Center
Mon 07:25:55 PM 36.8117 -81.3864 64° Northeast 186 214 9,000  Level Atlanta Center
Mon 07:26:55 PM 36.8394 -81.3231 61° Northeast 196 226 9,000  Level Atlanta Center
Mon 07:27:55 PM 36.8547 -81.2578 74° East 196 226 9,000 50 Level Atlanta Center
Mon 07:28:55 PM 36.8761 -81.1869 69° East 196 226 9,100 50 Climbing Atlanta Center
Mon 07:29:55 PM 36.9017 -81.1264 62° Northeast 191 220 9,100  Level Atlanta Center
Mon 07:30:55 PM 36.9211 -81.0633 69° East 186 214 9,100  Level Atlanta Center
Mon 07:31:55 PM 36.9236 -81.0036 87° East 191 220 9,100  Level Atlanta Center
Mon 07:32:55 PM 36.9283 -80.9333 85° East 191 220 9,100  Level Atlanta Center
Mon 07:33:55 PM 36.9347 -80.8656 83° East 196 226 9,100  Level Atlanta Center
Mon 07:34:55 PM 36.9414 -80.8028 82° East 196 226 9,100  Level Atlanta Center
Mon 07:35:55 PM 36.9583 -80.7294 74° East 196 226 9,100  Level Atlanta Center
Mon 07:36:55 PM 36.9775 -80.6636 70° East 196 226 9,100 -91 Level Atlanta Center
Mon 07:38:00 PM 36.9790 -80.6023 88° East  Level FlightAware Approximate
Mon 07:45:00 PM 37.0253 -80.2072 76° East  Level FlightAware Approximate
Mon 07:46:00 PM 37.0353 -80.1520 80° East  Level FlightAware Approximate
Mon 07:47:00 PM 37.0428 -80.0961 80° East  Level FlightAware Approximate
Mon 07:48:00 PM 37.0503 -80.0402 80° East  Level FlightAware Approximate
Mon 07:49:00 PM 37.0577 -79.9843 81° East  Level FlightAware Approximate
Mon 07:50:00 PM 37.0651 -79.9283 81° East  Level FlightAware Approximate
Mon 07:51:00 PM 37.0741 -79.8727 78° East  Level FlightAware Approximate
Mon 07:52:00 PM 37.0834 -79.8173 78° East  Level FlightAware Approximate
Mon 07:53:00 PM 37.0927 -79.7618 78° East  Level FlightAware Approximate
Mon 07:54:00 PM 37.1020 -79.7062 78° East  Level FlightAware Approximate
Mon 07:55:00 PM 37.1113 -79.6507 78° East  Level FlightAware Approximate
Mon 07:56:00 PM 37.1205 -79.5952 78° East  Level FlightAware Approximate
Mon 07:57:00 PM 37.1297 -79.5396 78° East  Level FlightAware Approximate
Mon 07:58:00 PM 37.1399 -79.4783 78° East  Level FlightAware Approximate
Mon 07:59:00 PM 37.1499 -79.4170 78° East  Level FlightAware Approximate
Mon 07:59:03 PM 37.2228 -79.1756 77° East 191 220 7,000  Level Washington Center
Mon 08:00:00 PM 37.1611 -79.3560 77° East  Level FlightAware Approximate
Mon 08:00:05 PM 37.2331 -79.1108 79° East 197 227 7,000  Level Washington Center
Mon 08:01:00 PM 37.1721 -79.2949 77° East  Level FlightAware Approximate
Mon 08:01:05 PM 37.2414 -79.0433 81° East 197 227 7,000  Level Washington Center
Mon 08:02:00 PM 37.1832 -79.2338 77° East  Level FlightAware Approximate
Mon 08:02:06 PM 37.2514 -78.9864 78° East 197 227 7,000  Level Washington Center
Mon 08:03:00 PM 37.1942 -79.1728 77° East  Level FlightAware Approximate
Mon 08:03:04 PM 37.2636 -78.9217 77° East 197 227 7,000  Level Washington Center
Mon 08:04:00 PM 37.2052 -79.1116 77° East  Level FlightAware Approximate
Mon 08:04:05 PM 37.2736 -78.8594 79° East 192 221 7,000  Level Washington Center
Mon 08:05:06 PM 37.2836 -78.7919 79° East 192 221 7,000  Level Washington Center
Mon 08:06:04 PM 37.2939 -78.7194 80° East 192 221 7,000  Level Washington Center
Mon 08:07:06 PM 37.3061 -78.6572 76° East 186 214 7,000  Level Washington Center
Mon 08:08:04 PM 37.3161 -78.5897 79° East 186 214 7,000  Level Washington Center
Mon 08:09:05 PM 37.3261 -78.5247 79° East 186 214 7,000  Level Washington Center
Mon 08:10:05 PM 37.3358 -78.4653 78° East 186 214 7,000  Level Washington Center
Mon 08:11:06 PM 37.3458 -78.4003 79° East 181 208 7,000  Level Washington Center
Mon 08:12:05 PM 37.3556 -78.3328 80° East 181 208 7,000  Level Washington Center
Mon 08:13:05 PM 37.3678 -78.2600 78° East 181 208 7,000  Level Washington Center
Mon 08:14:06 PM 37.3775 -78.1975 79° East 186 214 7,000  Level Washington Center
Mon 08:15:06 PM 37.3853 -78.1297 82° East 186 214 7,000  Level Washington Center
Mon 08:16:04 PM 37.3906 -78.0647 84° East 186 214 7,000  Level Washington Center
Mon 08:17:05 PM 37.3900 -77.9967 91° East 186 214 7,000  Level Washington Center
Mon 08:18:05 PM 37.3892 -77.9286 91° East 186 214 7,000  Level Washington Center
Mon 08:19:06 PM 37.3906 -77.8608 89° East 186 214 7,000 -373 Level Washington Center
Mon 08:21:34 PM 37.3833 -77.6833 93° East 203 234 5,700 -606 Descending Potomac TRACON
Mon 08:22:34 PM 37.3833 -77.6167 90° East 201 231 4,900 -810 Descending Potomac TRACON
Mon 08:23:40 PM 37.4000 -77.5333 76° East 200 230 4,000 -810 Descending Potomac TRACON
Mon 08:24:40 PM 37.4000 -77.4667 90° East 194 223 3,200 -700 Descending Potomac TRACON
Mon 08:25:40 PM 37.4000 -77.4167 90° East 187 215 2,600 -550 Descending Potomac TRACON
Mon 08:26:40 PM 37.3833 -77.3500 107° East 184 212 2,100 -350 Descending Potomac TRACON
Mon 08:27:40 PM 37.4333 -77.3167 28° Northeast 164 189 1,900 -632 Descending Potomac TRACON
Mon 08:28:34 PM 37.4667 -77.3000 22° Northeast 142 163 900 299 Descending Potomac TRACON
Mon 08:30:00 PM 37.5000 -77.3167 76° East  Level FlightAware Approximate
Mon 08:32:41 PM 37.5167 -77.3333 76° East 14 16 3,400  Level Potomac TRACON
Mon 08:34:00 PM 37.5052 -77.3197 142° Southeast  Level Estimated
Mon 08:37:00 PM 37.5052 -77.3197 76° East  Level Estimated
Mon 08:41:00 PM 37.5000 -77.3167 76° East  Level FlightAware Approximate
Mon 08:42:00 PM 37.5052 -77.3197 76° East  Level Estimated
Mon 08:43:00 PM 37.5000 -77.3167 76° East  Level FlightAware Approximate

Login

Don't have an account? Register now (free) for customized features, flight alerts, and more!